createdAt,value
2023-04-06T00:00:28.906Z,84.05
2023-04-06T00:02:57.553Z,83.96
2023-04-06T00:05:26.648Z,83.93
2023-04-06T00:07:57.340Z,85.18
2023-04-06T00:10:27.862Z,84.77
2023-04-06T00:12:57.824Z,85.32
2023-04-06T00:15:26.700Z,85.47
2023-04-06T00:17:55.798Z,85.50
2023-04-06T00:20:24.400Z,85.29
2023-04-06T00:22:52.889Z,85.54
2023-04-06T00:25:21.770Z,85.21
2023-04-06T00:27:51.921Z,84.71
2023-04-06T00:30:21.401Z,84.03
2023-04-06T00:32:50.126Z,84.31
2023-04-06T00:35:19.113Z,84.21
2023-04-06T00:37:49.251Z,84.73
2023-04-06T00:40:18.588Z,84.62
2023-04-06T00:42:47.413Z,84.76
2023-04-06T00:45:17.903Z,84.83
2023-04-06T00:47:46.684Z,84.27
2023-04-06T00:50:15.841Z,84.84
2023-04-06T00:52:44.602Z,84.24
2023-04-06T00:55:13.875Z,84.04
2023-04-06T00:57:42.487Z,83.42
2023-04-06T01:00:12.375Z,83.43
2023-04-06T01:02:42.776Z,84.02
2023-04-06T01:05:11.603Z,83.61
2023-04-06T01:07:40.895Z,83.67
2023-04-06T01:10:10.114Z,83.84
2023-04-06T01:12:40.094Z,83.80
2023-04-06T01:15:10.018Z,84.39
2023-04-06T01:17:38.748Z,83.52
2023-04-06T01:20:10.265Z,83.82
2023-04-06T01:22:40.356Z,83.83
2023-04-06T01:25:11.098Z,84.29
2023-04-06T01:27:40.056Z,84.52
2023-04-06T01:30:09.714Z,84.46
2023-04-06T01:32:38.429Z,83.46
2023-04-06T01:35:08.449Z,83.62
2023-04-06T01:40:41.287Z,83.65
2023-04-06T01:43:09.667Z,83.76
2023-04-06T01:45:38.488Z,83.95
2023-04-06T01:48:07.971Z,84.10
2023-04-06T01:50:39.340Z,83.68
2023-04-06T01:53:07.954Z,84.06
2023-04-06T01:55:36.736Z,84.32
2023-04-06T01:58:06.793Z,84.57
2023-04-06T02:00:35.901Z,84.80
2023-04-06T02:03:04.537Z,84.92
2023-04-06T02:05:39.136Z,85.17
2023-04-06T02:08:10.394Z,85.20
2023-04-06T02:13:47.256Z,85.69
2023-04-06T02:16:17.220Z,85.58
2023-04-06T02:18:49.600Z,85.49
2023-04-06T02:21:21.302Z,85.64
2023-04-06T02:23:51.952Z,86.28
2023-04-06T02:26:23.479Z,85.99
2023-04-06T02:28:53.732Z,86.91
2023-04-06T02:31:22.265Z,85.76
2023-04-06T02:33:51.020Z,85.85
2023-04-06T02:36:19.501Z,85.51
2023-04-06T02:38:48.193Z,85.96
2023-04-06T02:41:17.178Z,86.31
2023-04-06T02:43:45.520Z,86.14
2023-04-06T02:46:15.781Z,85.46
2023-04-06T02:48:44.712Z,85.99
2023-04-06T02:51:13.952Z,86.49
2023-04-06T02:53:42.826Z,86.64
2023-04-06T02:56:11.626Z,86.68
2023-04-06T02:58:43.536Z,86.18
2023-04-06T03:01:12.142Z,86.19
2023-04-06T03:03:44.932Z,86.28
2023-04-06T03:06:13.459Z,86.42
2023-04-06T03:08:41.998Z,86.28
2023-04-06T03:11:10.534Z,87.55
2023-04-06T03:13:39.991Z,87.58
2023-04-06T03:16:09.181Z,87.39
2023-04-06T03:18:38.088Z,86.99
2023-04-06T03:21:08.314Z,87.50
2023-04-06T03:23:37.111Z,87.57
2023-04-06T03:26:06.067Z,87.97
2023-04-06T03:28:34.942Z,87.09
2023-04-06T03:31:04.713Z,87.95
2023-04-06T03:33:33.473Z,87.97
2023-04-06T03:36:02.594Z,87.93
2023-04-06T03:38:33.812Z,87.95
2023-04-06T03:41:02.466Z,87.86
2023-04-06T03:43:31.179Z,87.72
2023-04-06T03:45:59.664Z,88.52
2023-04-06T03:48:28.399Z,88.05
2023-04-06T03:50:57.434Z,87.69
2023-04-06T03:53:26.260Z,87.72
2023-04-06T03:55:56.442Z,88.10
2023-04-06T03:58:25.059Z,87.64
2023-04-06T04:00:53.694Z,86.95
2023-04-06T04:03:22.909Z,86.21
2023-04-06T04:05:51.548Z,86.03
2023-04-06T04:08:19.792Z,86.38
2023-04-06T04:10:48.493Z,85.59
2023-04-06T04:13:18.824Z,85.21
2023-04-06T04:15:49.022Z,85.51
2023-04-06T04:18:17.960Z,84.84
2023-04-06T04:20:46.840Z,84.74
2023-04-06T04:23:15.882Z,84.57
2023-04-06T04:25:46.521Z,85.22
2023-04-06T04:28:15.311Z,85.12
2023-04-06T04:30:50.505Z,84.87
2023-04-06T04:33:20.400Z,85.37
2023-04-06T04:35:48.915Z,85.02
2023-04-06T04:38:17.982Z,85.26
2023-04-06T04:40:46.390Z,84.97
2023-04-06T04:43:15.880Z,84.27
2023-04-06T04:46:22.978Z,84.34
2023-04-06T04:48:53.074Z,83.60
2023-04-06T04:51:21.983Z,83.90
2023-04-06T04:53:50.970Z,84.31
2023-04-06T04:56:20.149Z,84.07
2023-04-06T04:58:49.909Z,83.71
2023-04-06T05:01:18.874Z,84.74
2023-04-06T05:03:47.902Z,85.05
2023-04-06T05:06:17.905Z,84.74
2023-04-06T05:08:48.626Z,85.22
2023-04-06T05:11:17.113Z,84.47
2023-04-06T05:13:45.871Z,84.47
2023-04-06T05:16:14.630Z,84.31
2023-04-06T05:18:43.294Z,84.07
2023-04-06T05:21:13.593Z,83.25
2023-04-06T05:23:43.685Z,83.20
2023-04-06T05:26:12.367Z,83.34
2023-04-06T05:28:41.346Z,82.96
2023-04-06T05:31:09.929Z,82.54
2023-04-06T05:33:38.952Z,82.91
2023-04-06T05:36:08.615Z,81.84
2023-04-06T05:38:37.585Z,81.42
2023-04-06T05:41:14.001Z,81.06
2023-04-06T05:43:42.908Z,80.82
2023-04-06T05:46:11.682Z,80.54
2023-04-06T05:48:40.362Z,80.79
2023-04-06T05:51:09.225Z,80.44
2023-04-06T05:53:38.074Z,79.44
2023-04-06T05:56:09.696Z,80.21
2023-04-06T05:58:38.243Z,79.62
2023-04-06T06:01:07.218Z,79.30
2023-04-06T06:03:36.082Z,79.08
2023-04-06T06:06:08.332Z,78.47
2023-04-06T06:08:37.581Z,78.37
2023-04-06T06:11:07.933Z,78.94
2023-04-06T06:13:36.736Z,79.21
2023-04-06T06:16:06.571Z,79.55
2023-04-06T06:18:35.329Z,79.20
2023-04-06T06:21:06.853Z,77.64
2023-04-06T06:23:35.456Z,77.69
2023-04-06T06:26:04.290Z,77.52
2023-04-06T06:28:34.765Z,77.13
2023-04-06T06:31:03.531Z,76.87
2023-04-06T06:33:32.217Z,76.76
2023-04-06T06:36:00.959Z,75.89
2023-04-06T06:38:30.006Z,75.23
2023-04-06T06:40:58.853Z,75.43
2023-04-06T06:43:27.632Z,75.14
2023-04-06T06:45:57.708Z,73.36
2023-04-06T06:48:26.516Z,71.90
2023-04-06T06:50:55.476Z,72.10
2023-04-06T06:53:24.260Z,69.87
2023-04-06T06:55:53.566Z,69.14
2023-04-06T06:58:22.465Z,67.36
2023-04-06T07:00:53.463Z,65.79
2023-04-06T07:03:23.561Z,64.44
2023-04-06T07:05:54.518Z,64.48
2023-04-06T07:08:23.804Z,63.83
2023-04-06T07:10:54.494Z,62.33
2023-04-06T07:13:24.400Z,61.32
2023-04-06T07:15:53.034Z,59.61
2023-04-06T07:18:23.492Z,59.12
2023-04-06T07:20:51.998Z,59.15
2023-04-06T07:23:21.260Z,58.13
2023-04-06T07:25:52.235Z,59.16
2023-04-06T07:28:21.033Z,56.63
2023-04-06T07:30:50.119Z,55.65
2023-04-06T07:33:18.919Z,57.14
2023-04-06T07:35:49.075Z,57.27
2023-04-06T07:38:17.782Z,54.16
2023-04-06T07:40:46.285Z,54.42
2023-04-06T07:43:15.414Z,54.10
2023-04-06T07:45:45.802Z,55.02
2023-04-06T07:48:14.508Z,54.44
2023-04-06T07:50:43.478Z,51.13
2023-04-06T07:53:13.980Z,51.75
2023-04-06T07:55:42.912Z,52.04
2023-04-06T07:58:14.523Z,50.22
2023-04-06T08:00:43.521Z,50.22
2023-04-06T08:03:12.478Z,49.45
2023-04-06T08:05:41.493Z,49.82
2023-04-06T08:08:10.817Z,49.70
2023-04-06T08:10:49.886Z,48.08
2023-04-06T08:13:18.924Z,46.01
2023-04-06T08:15:47.615Z,42.95
2023-04-06T08:18:16.575Z,46.34
2023-04-06T08:20:45.283Z,44.64
2023-04-06T08:23:14.020Z,42.48
2023-04-06T08:25:42.526Z,45.66
2023-04-06T08:28:12.756Z,45.83
2023-04-06T08:30:42.885Z,46.51
2023-04-06T08:33:14.114Z,45.58
2023-04-06T08:35:45.181Z,43.35
2023-04-06T08:38:13.800Z,44.68
2023-04-06T08:40:44.768Z,45.21
2023-04-06T08:43:17.427Z,44.93
2023-04-06T08:45:46.219Z,40.64
2023-04-06T08:48:15.284Z,40.58
2023-04-06T08:50:47.027Z,42.45
2023-04-06T08:53:15.983Z,42.72
2023-04-06T08:55:45.991Z,42.25
2023-04-06T08:58:24.553Z,41.79
2023-04-06T09:01:05.103Z,41.26
2023-04-06T09:03:34.496Z,37.98
2023-04-06T09:06:03.913Z,41.01
2023-04-06T09:08:35.155Z,39.56
2023-04-06T09:11:03.948Z,38.85
2023-04-06T09:13:32.685Z,38.71
2023-04-06T09:16:03.665Z,37.35
2023-04-06T09:18:34.558Z,37.58
2023-04-06T09:21:04.413Z,37.38
2023-04-06T09:23:33.467Z,36.23
2023-04-06T09:26:12.424Z,37.79
2023-04-06T09:28:45.419Z,39.46
2023-04-06T09:31:15.989Z,40.40
2023-04-06T09:33:48.211Z,37.58
2023-04-06T09:36:17.457Z,37.87
2023-04-06T09:38:56.644Z,36.98
2023-04-06T09:41:27.382Z,38.39
2023-04-06T09:44:05.424Z,34.53
2023-04-06T09:46:50.396Z,34.09
2023-04-06T09:49:25.629Z,33.61
2023-04-06T09:51:56.940Z,31.81
2023-04-06T09:54:26.193Z,32.13
2023-04-06T09:57:01.151Z,33.33
2023-04-06T09:59:35.870Z,31.83
2023-04-06T10:02:08.009Z,31.83
2023-04-06T10:04:42.541Z,28.74
2023-04-06T10:07:13.081Z,26.90
2023-04-06T10:09:42.202Z,25.62
2023-04-06T10:12:11.401Z,26.04
2023-04-06T10:14:43.199Z,27.80
2023-04-06T10:17:13.859Z,29.66
2023-04-06T10:20:04.689Z,32.17
2023-04-06T10:22:39.328Z,33.92
2023-04-06T10:25:08.795Z,34.86
2023-04-06T10:27:40.592Z,34.35
2023-04-06T10:30:10.066Z,35.31
2023-04-06T10:32:41.514Z,32.86
2023-04-06T10:35:11.355Z,33.93
2023-04-06T10:37:51.759Z,34.57
2023-04-06T10:40:26.707Z,35.59
2023-04-06T10:42:56.340Z,35.77
2023-04-06T10:45:26.645Z,33.65
2023-04-06T10:47:59.540Z,34.59
2023-04-06T10:50:28.627Z,37.02
2023-04-06T10:53:04.932Z,38.18
2023-04-06T10:55:33.645Z,37.48
2023-04-06T10:58:02.210Z,37.33
2023-04-06T11:00:39.676Z,36.34
2023-04-06T11:03:17.400Z,35.88
2023-04-06T11:05:48.015Z,35.63
2023-04-06T11:08:28.146Z,35.50
2023-04-06T11:11:07.905Z,37.13
2023-04-06T11:13:41.946Z,38.12
2023-04-06T11:16:15.651Z,39.16
2023-04-06T11:18:56.736Z,38.32
2023-04-06T11:21:36.959Z,37.46
2023-04-06T11:24:12.720Z,36.50
2023-04-06T11:26:44.994Z,36.76
2023-04-06T11:29:14.692Z,36.76
2023-04-06T11:31:44.290Z,36.85
2023-04-06T11:34:16.244Z,36.63
2023-04-06T11:36:45.989Z,35.91
2023-04-06T11:39:15.604Z,36.24
2023-04-06T11:41:45.260Z,37.57
2023-04-06T11:44:14.358Z,39.18
2023-04-06T11:46:43.105Z,37.67
2023-04-06T11:49:12.113Z,37.80
2023-04-06T11:51:42.755Z,38.56
2023-04-06T11:54:11.471Z,36.87
2023-04-06T11:56:40.012Z,37.64
2023-04-06T11:59:12.776Z,37.22
2023-04-06T12:01:47.826Z,37.60
2023-04-06T12:04:18.970Z,37.53
2023-04-06T12:07:14.752Z,37.79
2023-04-06T12:09:44.340Z,37.42
2023-04-06T12:12:12.983Z,37.95
2023-04-06T12:14:41.520Z,36.09
2023-04-06T12:17:10.602Z,36.90
2023-04-06T12:19:39.491Z,36.74
2023-04-06T12:22:13.531Z,36.44
2023-04-06T12:24:46.155Z,35.97
2023-04-06T12:27:14.814Z,36.87
2023-04-06T12:29:43.544Z,36.55
2023-04-06T12:32:12.834Z,34.64
2023-04-06T12:34:41.866Z,37.36
2023-04-06T12:37:10.760Z,37.71
2023-04-06T12:39:39.654Z,37.55
2023-04-06T12:42:11.497Z,35.27
2023-04-06T12:44:40.049Z,36.56
2023-04-06T12:47:10.330Z,37.82
2023-04-06T12:49:38.971Z,37.03
2023-04-06T12:52:07.605Z,36.64
2023-04-06T12:54:38.022Z,37.03
2023-04-06T12:57:06.676Z,37.61
2023-04-06T12:59:38.575Z,37.23
2023-04-06T13:02:08.129Z,36.33
2023-04-06T13:04:36.967Z,37.34
2023-04-06T13:07:06.222Z,37.11
2023-04-06T13:09:34.888Z,36.05
2023-04-06T13:12:03.558Z,36.82
2023-04-06T13:14:32.580Z,36.89
2023-04-06T13:17:02.510Z,36.95
2023-04-06T13:19:32.487Z,35.39
2023-04-06T13:22:01.085Z,35.09
2023-04-06T13:24:29.812Z,33.93
2023-04-06T13:26:58.780Z,35.43
2023-04-06T13:29:28.657Z,35.66
2023-04-06T13:31:57.282Z,34.23
2023-04-06T13:34:27.568Z,35.27
2023-04-06T13:36:56.327Z,37.13
2023-04-06T13:39:25.369Z,35.42
2023-04-06T13:41:56.722Z,34.60
2023-04-06T13:44:26.010Z,35.23
2023-04-06T13:46:54.981Z,32.81
2023-04-06T13:49:24.136Z,34.15
2023-04-06T13:51:56.001Z,34.98
2023-04-06T13:54:24.854Z,35.82
2023-04-06T13:56:54.465Z,31.92
2023-04-06T13:59:23.053Z,34.08
2023-04-06T14:01:51.588Z,34.02
2023-04-06T14:04:20.741Z,32.99
2023-04-06T14:06:49.598Z,33.99
2023-04-06T14:09:19.764Z,34.02
2023-04-06T14:11:48.397Z,34.05
2023-04-06T14:14:17.054Z,34.04
2023-04-06T14:16:46.461Z,33.27
2023-04-06T14:19:18.673Z,32.92
2023-04-06T14:21:47.907Z,33.70
2023-04-06T14:24:17.319Z,33.46
2023-04-06T14:26:47.874Z,34.73
2023-04-06T14:29:17.205Z,34.20
2023-04-06T14:31:47.558Z,31.30
2023-04-06T14:34:16.303Z,34.78
2023-04-06T14:36:45.069Z,32.24
2023-04-06T14:39:13.633Z,32.30
2023-04-06T14:41:44.811Z,30.56
2023-04-06T14:44:17.787Z,31.01
2023-04-06T14:46:47.471Z,32.53
2023-04-06T14:49:16.216Z,33.16
2023-04-06T14:51:47.759Z,34.37
2023-04-06T14:54:16.497Z,33.59
2023-04-06T14:57:10.061Z,33.05
2023-04-06T14:59:40.577Z,33.33
2023-04-06T15:02:11.243Z,32.56
2023-04-06T15:04:41.378Z,32.76
2023-04-06T15:07:10.313Z,34.35
2023-04-06T15:09:40.569Z,33.00
2023-04-06T15:12:09.223Z,32.81
2023-04-06T15:14:37.843Z,31.37
2023-04-06T15:17:08.254Z,31.72
2023-04-06T15:19:37.475Z,31.24
2023-04-06T15:22:06.222Z,32.84
2023-04-06T15:24:34.743Z,31.48
2023-04-06T15:27:03.834Z,30.49
2023-04-06T15:29:33.646Z,31.49
2023-04-06T15:32:05.068Z,32.57
2023-04-06T15:34:35.260Z,31.05
2023-04-06T15:37:05.244Z,33.46
2023-04-06T15:39:34.509Z,31.74
2023-04-06T15:42:03.300Z,33.19
2023-04-06T15:44:32.497Z,33.50
2023-04-06T15:47:01.300Z,34.44
2023-04-06T15:49:30.065Z,33.88
2023-04-06T15:52:00.296Z,34.74
2023-04-06T15:54:31.691Z,35.33
2023-04-06T15:57:01.751Z,35.56
2023-04-06T15:59:32.679Z,36.44
2023-04-06T16:02:01.202Z,36.74
2023-04-06T16:04:30.362Z,35.81
2023-04-06T16:07:01.582Z,37.08
2023-04-06T16:09:30.665Z,37.04
2023-04-06T16:12:01.651Z,35.49
2023-04-06T16:14:36.173Z,35.35
2023-04-06T16:17:04.895Z,35.16
2023-04-06T16:19:33.963Z,33.21
2023-04-06T16:22:03.991Z,33.61
2023-04-06T16:24:33.328Z,32.66
2023-04-06T16:27:01.906Z,31.32
2023-04-06T16:29:32.002Z,32.13
2023-04-06T16:32:03.850Z,31.23
2023-04-06T16:34:34.536Z,30.97
2023-04-06T16:37:04.452Z,30.84
2023-04-06T16:39:33.648Z,30.86
2023-04-06T16:42:02.971Z,32.26
2023-04-06T16:44:31.800Z,33.82
2023-04-06T16:47:00.406Z,33.92
2023-04-06T16:49:33.443Z,35.68
2023-04-06T16:52:06.600Z,36.79
2023-04-06T16:54:35.847Z,38.52
2023-04-06T16:57:06.367Z,39.35
2023-04-06T16:59:35.314Z,40.38
2023-04-06T17:02:04.296Z,42.92
2023-04-06T17:04:33.311Z,45.51
2023-04-06T17:07:03.974Z,46.80
2023-04-06T17:12:07.967Z,49.90
2023-04-06T17:14:37.348Z,49.87
2023-04-06T17:17:06.267Z,51.94
2023-04-06T17:19:35.029Z,52.52
2023-04-06T17:22:04.872Z,53.23
2023-04-06T17:24:33.831Z,53.69
2023-04-06T17:27:05.679Z,55.36
2023-04-06T17:29:37.400Z,55.92
2023-04-06T17:32:06.231Z,56.48
2023-04-06T17:34:34.704Z,56.99
2023-04-06T17:37:05.018Z,59.07
2023-04-06T17:39:33.687Z,59.15
2023-04-06T17:42:04.620Z,59.45
2023-04-06T17:44:36.474Z,59.58
2023-04-06T17:47:05.861Z,60.19
2023-04-06T17:49:34.676Z,60.61
2023-04-06T17:52:06.774Z,61.07
2023-04-06T17:54:36.750Z,60.65
2023-04-06T17:57:07.863Z,60.73
2023-04-06T17:59:36.552Z,60.95
2023-04-06T18:02:07.284Z,61.57
2023-04-06T18:04:36.229Z,61.17
2023-04-06T18:07:07.180Z,61.17
2023-04-06T18:09:35.843Z,61.34
2023-04-06T18:12:04.705Z,61.51
2023-04-06T18:14:33.498Z,61.92
2023-04-06T18:17:02.047Z,62.22
2023-04-06T18:19:32.453Z,62.59
2023-04-06T18:22:04.034Z,62.61
2023-04-06T18:24:42.282Z,62.87
2023-04-06T18:27:13.180Z,63.51
2023-04-06T18:29:44.508Z,62.95
2023-04-06T18:32:13.578Z,63.09
2023-04-06T18:34:42.322Z,63.14
2023-04-06T18:37:12.117Z,63.07
2023-04-06T18:39:45.773Z,63.98
2023-04-06T18:42:15.929Z,63.74
2023-04-06T18:44:45.190Z,63.98
2023-04-06T18:47:14.746Z,63.31
2023-04-06T18:49:44.300Z,63.46
2023-04-06T18:52:14.627Z,63.42
2023-04-06T18:54:43.855Z,63.75
2023-04-06T18:57:14.092Z,64.38
2023-04-06T18:59:44.228Z,65.55
2023-04-06T19:02:14.624Z,66.03
2023-04-06T19:04:43.988Z,66.16
2023-04-06T19:07:13.086Z,66.00
2023-04-06T19:09:42.488Z,65.28
2023-04-06T19:12:13.756Z,65.57
2023-04-06T19:14:51.829Z,65.84
2023-04-06T19:17:26.173Z,65.96
2023-04-06T19:19:55.840Z,65.89
2023-04-06T19:22:25.557Z,66.12
2023-04-06T19:24:54.666Z,66.74
2023-04-06T19:27:24.803Z,66.69
2023-04-06T19:29:55.574Z,66.93
2023-04-06T19:32:24.475Z,67.04
2023-04-06T19:34:55.625Z,66.84
2023-04-06T19:37:24.957Z,67.05
2023-04-06T19:39:53.495Z,66.94
2023-04-06T19:42:23.529Z,66.49
2023-04-06T19:44:53.366Z,66.71
2023-04-06T19:47:24.062Z,67.13
2023-04-06T19:49:53.277Z,67.56
2023-04-06T19:52:22.818Z,67.62
2023-04-06T19:54:51.073Z,68.46
2023-04-06T19:57:21.723Z,68.55
2023-04-06T19:59:50.705Z,68.40
2023-04-06T20:02:21.261Z,68.51
2023-04-06T20:04:52.325Z,69.00
2023-04-06T20:07:20.979Z,70.11
2023-04-06T20:09:50.443Z,70.30
2023-04-06T20:12:19.938Z,70.89
2023-04-06T20:14:48.439Z,70.93
2023-04-06T20:17:17.463Z,71.04
2023-04-06T20:19:46.656Z,71.79
2023-04-06T20:22:18.183Z,71.90
2023-04-06T20:24:47.328Z,72.51
2023-04-06T20:27:17.407Z,74.35
2023-04-06T20:29:46.467Z,74.89
2023-04-06T20:32:20.521Z,74.76
2023-04-06T20:34:49.158Z,74.53
2023-04-06T20:37:19.698Z,74.00
2023-04-06T20:39:48.662Z,73.92
2023-04-06T20:42:19.153Z,73.71
2023-04-06T20:44:47.795Z,74.65
2023-04-06T20:47:16.688Z,75.14
2023-04-06T20:49:45.242Z,75.84
2023-04-06T20:52:14.761Z,76.61
2023-04-06T20:54:45.400Z,76.62
2023-04-06T20:57:13.988Z,76.38
2023-04-06T20:59:43.642Z,75.94
2023-04-06T21:02:12.433Z,75.58
2023-04-06T21:04:41.895Z,75.71
2023-04-06T21:07:10.724Z,75.52
2023-04-06T21:09:40.747Z,75.34
2023-04-06T21:12:12.008Z,75.26
2023-04-06T21:14:41.684Z,75.07
2023-04-06T21:17:12.011Z,75.80
2023-04-06T21:19:40.844Z,75.92
2023-04-06T21:22:10.544Z,76.33
2023-04-06T21:24:39.574Z,76.12
2023-04-06T21:27:08.629Z,76.99
2023-04-06T21:29:39.234Z,77.56
2023-04-06T21:32:08.447Z,78.04
2023-04-06T21:34:37.659Z,79.31
2023-04-06T21:37:09.143Z,79.90
2023-04-06T21:39:40.674Z,80.14
2023-04-06T21:42:12.135Z,80.04
2023-04-06T21:44:42.250Z,79.48
2023-04-06T21:47:11.416Z,79.93
2023-04-06T21:49:40.052Z,79.85
2023-04-06T21:52:08.650Z,79.51
2023-04-06T21:54:37.576Z,79.68
2023-04-06T21:57:12.434Z,80.06
2023-04-06T21:59:43.303Z,81.16
2023-04-06T22:02:12.323Z,81.49
2023-04-06T22:04:41.583Z,81.66
2023-04-06T22:07:10.616Z,82.16
2023-04-06T22:09:39.529Z,82.16
2023-04-06T22:12:08.275Z,82.86
2023-04-06T22:14:37.614Z,82.47
2023-04-06T22:17:08.205Z,82.25
2023-04-06T22:19:37.258Z,81.91
2023-04-06T22:22:06.055Z,82.61
2023-04-06T22:24:34.785Z,83.20
2023-04-06T22:27:04.515Z,83.09
2023-04-06T22:29:33.178Z,82.20
2023-04-06T22:32:02.335Z,81.80
2023-04-06T22:34:32.468Z,81.96
2023-04-06T22:37:03.500Z,82.42
2023-04-06T22:39:33.440Z,82.79
2023-04-06T22:42:02.464Z,82.24
2023-04-06T22:44:31.378Z,82.60
2023-04-06T22:47:00.382Z,82.84
2023-04-06T22:49:29.334Z,82.80
2023-04-06T22:52:07.215Z,83.19
2023-04-06T22:54:44.296Z,83.60
2023-04-06T22:57:14.468Z,84.22
2023-04-06T22:59:43.634Z,84.02
2023-04-06T23:02:12.381Z,84.09
2023-04-06T23:04:41.586Z,83.42
2023-04-06T23:07:15.605Z,83.77
2023-04-06T23:10:03.467Z,83.42
2023-04-06T23:12:32.259Z,84.15
2023-04-06T23:15:00.994Z,84.30
2023-04-06T23:17:30.058Z,84.65
2023-04-06T23:20:04.240Z,84.69
2023-04-06T23:22:34.575Z,84.50
2023-04-06T23:25:03.889Z,84.45
2023-04-06T23:27:32.812Z,84.52
2023-04-06T23:30:06.526Z,84.86
2023-04-06T23:32:35.678Z,85.32
2023-04-06T23:35:04.742Z,85.09
2023-04-06T23:37:35.565Z,84.93
2023-04-06T23:40:04.777Z,84.48
2023-04-06T23:42:33.702Z,84.16
2023-04-06T23:45:04.581Z,84.15
2023-04-06T23:47:33.344Z,84.62
2023-04-06T23:50:01.922Z,84.24
2023-04-06T23:52:31.074Z,84.50
2023-04-06T23:55:00.990Z,84.75
2023-04-06T23:57:30.019Z,84.68
